createdAt,value
2019-03-19T00:00:37.135Z,2.87
2019-03-19T00:03:06.678Z,3.30
2019-03-19T00:05:36.209Z,3.77
2019-03-19T00:08:05.753Z,3.30
2019-03-19T00:10:35.277Z,2.53
2019-03-19T00:13:04.823Z,2.73
2019-03-19T00:15:34.355Z,3.27
2019-03-19T00:18:03.971Z,3.67
2019-03-19T00:20:33.497Z,2.90
2019-03-19T00:23:03.030Z,3.33
2019-03-19T00:25:32.561Z,4.10
2019-03-19T00:28:02.138Z,3.17
2019-03-19T00:30:31.655Z,3.20
2019-03-19T00:33:01.183Z,3.70
2019-03-19T00:35:30.726Z,3.20
2019-03-19T00:38:00.253Z,3.50
2019-03-19T00:40:29.786Z,2.87
2019-03-19T00:42:59.341Z,3.30
2019-03-19T00:45:28.881Z,3.50
2019-03-19T00:47:58.407Z,3.20
2019-03-19T00:50:27.946Z,2.93
2019-03-19T00:52:57.460Z,3.00
2019-03-19T00:55:27.004Z,2.87
2019-03-19T00:57:56.629Z,3.10
2019-03-19T01:00:26.205Z,3.27
2019-03-19T01:02:55.728Z,3.77
2019-03-19T01:05:25.270Z,3.10
2019-03-19T01:07:54.925Z,3.47
2019-03-19T01:10:24.450Z,3.07
2019-03-19T01:12:53.972Z,2.70
2019-03-19T01:15:23.541Z,3.03
2019-03-19T01:17:53.062Z,3.47
2019-03-19T01:20:22.603Z,3.50
2019-03-19T01:22:52.136Z,3.50
2019-03-19T01:25:21.677Z,3.40
2019-03-19T01:27:51.205Z,3.67
2019-03-19T01:30:20.759Z,3.77
2019-03-19T01:32:50.309Z,3.60
2019-03-19T01:35:19.860Z,5.10
2019-03-19T01:37:49.399Z,3.47
2019-03-19T01:40:19.079Z,3.10
2019-03-19T01:42:48.598Z,3.70
2019-03-19T01:45:18.132Z,3.40
2019-03-19T01:47:47.655Z,3.80
2019-03-19T01:50:17.213Z,3.70
2019-03-19T01:52:46.751Z,3.60
2019-03-19T01:55:16.300Z,3.40
2019-03-19T01:57:45.839Z,4.40
2019-03-19T02:00:15.482Z,4.83
2019-03-19T02:02:45.021Z,3.70
2019-03-19T02:05:14.707Z,3.80
2019-03-19T02:07:44.236Z,4.03
2019-03-19T02:10:13.786Z,3.50
2019-03-19T02:12:43.323Z,3.80
2019-03-19T02:15:13.228Z,3.40
2019-03-19T02:17:42.745Z,2.90
2019-03-19T02:20:12.789Z,3.80
2019-03-19T02:22:42.374Z,3.77
2019-03-19T02:25:11.994Z,3.70
2019-03-19T02:27:41.522Z,2.93
2019-03-19T02:30:11.621Z,3.70
2019-03-19T02:32:41.161Z,4.27
2019-03-19T02:35:10.808Z,3.10
2019-03-19T02:37:40.311Z,3.53
2019-03-19T02:40:10.045Z,3.13
2019-03-19T02:42:39.581Z,3.13
2019-03-19T02:45:09.418Z,3.20
2019-03-19T02:47:38.949Z,4.40
2019-03-19T02:50:09.236Z,4.50
2019-03-19T02:52:38.789Z,3.30
2019-03-19T02:55:08.891Z,3.10
2019-03-19T02:57:38.432Z,9.37
2019-03-19T03:00:08.491Z,9.50
2019-03-19T03:02:38.023Z,5.20
2019-03-19T03:05:08.234Z,3.90
2019-03-19T03:07:37.770Z,3.90
2019-03-19T03:10:08.075Z,4.57
2019-03-19T03:12:37.645Z,4.87
2019-03-19T03:15:07.601Z,5.00
2019-03-19T03:17:37.206Z,4.97
2019-03-19T03:20:06.984Z,5.83
2019-03-19T03:22:36.535Z,6.77
2019-03-19T03:25:06.622Z,7.93
2019-03-19T03:27:36.166Z,4.57
2019-03-19T03:30:06.191Z,4.70
2019-03-19T03:32:35.730Z,6.40
2019-03-19T03:35:05.642Z,5.83
2019-03-19T03:37:35.179Z,6.50
2019-03-19T03:40:05.052Z,4.90
2019-03-19T03:42:34.591Z,4.60
2019-03-19T03:45:04.200Z,5.80
2019-03-19T03:47:33.738Z,6.47
2019-03-19T03:50:03.319Z,8.00
2019-03-19T03:52:32.837Z,6.30
2019-03-19T03:55:02.423Z,8.27
2019-03-19T03:57:31.997Z,9.57
2019-03-19T04:00:01.582Z,9.03
2019-03-19T04:02:31.093Z,8.73
2019-03-19T04:05:00.641Z,8.43
2019-03-19T04:07:30.177Z,9.43
2019-03-19T04:09:59.725Z,7.50
2019-03-19T04:12:29.251Z,8.50
2019-03-19T04:14:58.833Z,8.63
2019-03-19T04:17:28.386Z,8.40
2019-03-19T04:19:57.944Z,7.77
2019-03-19T04:22:27.471Z,7.93
2019-03-19T04:24:57.050Z,8.00
2019-03-19T04:27:26.586Z,8.90
2019-03-19T04:29:56.164Z,7.90
2019-03-19T04:32:25.640Z,8.10
2019-03-19T04:34:55.191Z,8.17
2019-03-19T04:37:24.716Z,8.80
2019-03-19T04:39:54.256Z,9.27
2019-03-19T04:42:23.784Z,8.70
2019-03-19T04:44:53.333Z,7.80
2019-03-19T04:47:22.868Z,7.73
2019-03-19T04:49:52.401Z,7.60
2019-03-19T04:52:21.987Z,7.80
2019-03-19T04:54:51.544Z,6.73
2019-03-19T04:57:26.830Z,7.50
2019-03-19T04:59:52.343Z,8.60
2019-03-19T05:02:21.858Z,8.50
2019-03-19T05:04:51.395Z,6.97
2019-03-19T05:07:21.311Z,7.83
2019-03-19T05:09:50.842Z,7.10
2019-03-19T05:12:20.364Z,6.30
2019-03-19T05:14:49.897Z,6.77
2019-03-19T05:17:19.412Z,6.80
2019-03-19T05:19:48.960Z,7.27
2019-03-19T05:22:18.495Z,6.03
2019-03-19T05:24:48.187Z,6.33
2019-03-19T05:27:17.794Z,6.83
2019-03-19T05:29:47.344Z,7.60
2019-03-19T05:32:16.872Z,5.30
2019-03-19T05:34:46.413Z,7.27
2019-03-19T05:37:15.936Z,6.43
2019-03-19T05:39:45.488Z,5.30
2019-03-19T05:42:15.038Z,7.63
2019-03-19T05:44:44.586Z,5.23
2019-03-19T05:47:14.108Z,6.10
2019-03-19T05:49:43.658Z,7.43
2019-03-19T05:52:13.186Z,5.90
2019-03-19T05:54:42.727Z,6.73
2019-03-19T05:57:12.294Z,6.73
2019-03-19T05:59:41.902Z,6.53
2019-03-19T06:02:11.456Z,6.50
2019-03-19T06:04:40.994Z,6.70
2019-03-19T06:07:10.526Z,6.07
2019-03-19T06:09:40.064Z,6.30
2019-03-19T06:12:09.618Z,6.40
2019-03-19T06:14:39.148Z,5.37
2019-03-19T06:17:08.712Z,5.57
2019-03-19T06:19:38.253Z,6.63
2019-03-19T06:22:07.844Z,5.03
2019-03-19T06:24:37.359Z,6.30
2019-03-19T06:27:06.881Z,5.73
2019-03-19T06:29:36.424Z,5.57
2019-03-19T06:32:06.014Z,6.10
2019-03-19T06:34:35.534Z,6.27
2019-03-19T06:37:05.093Z,5.43
2019-03-19T06:39:34.614Z,5.53
2019-03-19T06:42:04.150Z,5.47
2019-03-19T06:44:33.680Z,6.80
2019-03-19T06:47:03.233Z,5.30
2019-03-19T06:49:32.758Z,5.47
2019-03-19T06:52:02.284Z,6.40
2019-03-19T06:54:31.815Z,5.23
2019-03-19T06:57:01.372Z,6.83
2019-03-19T06:59:30.888Z,5.50
2019-03-19T07:02:00.421Z,6.27
2019-03-19T07:04:29.950Z,6.83
2019-03-19T07:06:59.496Z,6.60
2019-03-19T07:09:29.028Z,6.80
2019-03-19T07:11:58.562Z,6.40
2019-03-19T07:14:28.087Z,6.77
2019-03-19T07:16:57.620Z,5.73
2019-03-19T07:19:27.191Z,5.90
2019-03-19T07:21:56.721Z,5.37
2019-03-19T07:24:26.270Z,5.50
2019-03-19T07:26:55.818Z,5.87
2019-03-19T07:29:25.340Z,6.07
2019-03-19T07:31:54.868Z,5.90
2019-03-19T07:34:24.403Z,5.40
2019-03-19T07:36:53.987Z,5.27
2019-03-19T07:39:23.513Z,5.40
2019-03-19T07:41:53.049Z,5.67
2019-03-19T07:44:22.590Z,5.77
2019-03-19T07:46:52.141Z,4.80
2019-03-19T07:49:21.666Z,5.23
2019-03-19T07:51:53.375Z,4.90
2019-03-19T07:54:22.554Z,5.30
2019-03-19T07:56:52.165Z,5.23
2019-03-19T07:59:21.707Z,4.80
2019-03-19T08:01:51.261Z,6.17
2019-03-19T08:04:20.786Z,5.40
2019-03-19T08:06:50.330Z,5.53
2019-03-19T08:09:19.921Z,5.60
2019-03-19T08:11:49.451Z,6.10
2019-03-19T08:14:18.970Z,5.93
2019-03-19T08:16:48.586Z,5.57
2019-03-19T08:19:18.129Z,5.53
2019-03-19T08:21:47.676Z,5.27
2019-03-19T08:24:17.304Z,5.93
2019-03-19T08:26:49.121Z,5.40
2019-03-19T08:29:19.009Z,5.97
2019-03-19T08:31:48.817Z,5.07
2019-03-19T08:34:18.344Z,5.13
2019-03-19T08:36:47.901Z,4.90
2019-03-19T08:39:17.581Z,5.47
2019-03-19T08:41:47.223Z,4.73
2019-03-19T08:44:16.750Z,5.43
2019-03-19T08:46:46.289Z,6.60
2019-03-19T08:49:15.821Z,6.40
2019-03-19T08:51:45.546Z,5.53
2019-03-19T08:54:15.222Z,5.13
2019-03-19T08:56:44.770Z,6.43
2019-03-19T08:59:14.356Z,5.80
2019-03-19T09:01:43.916Z,6.10
2019-03-19T09:04:13.442Z,5.57
2019-03-19T09:06:43.001Z,5.70
2019-03-19T09:09:12.539Z,5.30
2019-03-19T09:11:42.126Z,5.60
2019-03-19T09:14:11.660Z,6.00
2019-03-19T09:16:41.192Z,5.17
2019-03-19T09:19:10.801Z,5.87
2019-03-19T09:21:40.350Z,5.93
2019-03-19T09:24:09.893Z,5.63
2019-03-19T09:26:39.448Z,6.03
2019-03-19T09:29:16.947Z,7.07
2019-03-19T09:31:40.256Z,5.70
2019-03-19T09:34:09.797Z,8.20
2019-03-19T09:36:39.348Z,15.97
2019-03-19T09:39:09.533Z,6.63
2019-03-19T09:41:39.063Z,6.50
2019-03-19T09:44:08.624Z,38.87
2019-03-19T09:46:38.173Z,53.47
2019-03-19T09:49:07.747Z,59.90
2019-03-19T09:51:37.273Z,10.00
2019-03-19T09:54:06.840Z,40.40
2019-03-19T09:56:36.407Z,21.70
2019-03-19T09:59:05.955Z,21.00
2019-03-19T10:01:35.495Z,15.93
2019-03-19T10:04:05.058Z,39.37
2019-03-19T10:06:34.608Z,7.40
2019-03-19T10:09:04.917Z,6.00
2019-03-19T10:11:34.473Z,6.93
2019-03-19T10:14:04.109Z,17.87
2019-03-19T10:16:33.928Z,16.80
2019-03-19T10:19:03.465Z,27.33
2019-03-19T10:21:33.018Z,10.33
2019-03-19T10:24:02.618Z,15.97
2019-03-19T10:26:32.344Z,7.10
2019-03-19T10:29:01.896Z,5.87
2019-03-19T10:31:31.426Z,6.13
2019-03-19T10:34:00.973Z,6.37
2019-03-19T10:36:30.508Z,5.80
2019-03-19T10:39:00.082Z,6.50
2019-03-19T10:41:29.613Z,5.20
2019-03-19T10:43:59.151Z,5.77
2019-03-19T10:46:28.680Z,5.50
2019-03-19T10:48:58.348Z,5.83
2019-03-19T10:51:27.918Z,6.47
2019-03-19T10:53:57.559Z,4.77
2019-03-19T10:56:27.084Z,5.83
2019-03-19T10:58:56.662Z,4.70
2019-03-19T11:01:26.200Z,4.80
2019-03-19T11:03:55.763Z,5.90
2019-03-19T11:06:25.318Z,5.83
2019-03-19T11:08:55.004Z,6.70
2019-03-19T11:11:24.608Z,5.60
2019-03-19T11:13:54.144Z,4.83
2019-03-19T11:16:23.661Z,6.20
2019-03-19T11:18:53.327Z,5.97
2019-03-19T11:21:22.993Z,5.53
2019-03-19T11:23:52.559Z,5.40
2019-03-19T11:26:22.218Z,5.80
2019-03-19T11:28:51.775Z,6.07
2019-03-19T11:31:21.539Z,5.80
2019-03-19T11:33:51.056Z,5.30
2019-03-19T11:36:20.573Z,6.17
2019-03-19T11:38:50.145Z,6.00
2019-03-19T11:41:19.704Z,5.40
2019-03-19T11:43:49.288Z,5.73
2019-03-19T11:46:18.972Z,6.50
2019-03-19T11:48:48.589Z,5.97
2019-03-19T11:51:18.134Z,6.80
2019-03-19T11:53:47.686Z,5.80
2019-03-19T11:56:17.305Z,6.00
2019-03-19T11:58:49.654Z,5.60
2019-03-19T12:01:19.237Z,6.40
2019-03-19T12:03:48.791Z,5.43
2019-03-19T12:06:18.320Z,6.13
2019-03-19T12:08:48.045Z,5.60
2019-03-19T12:11:17.737Z,7.30
2019-03-19T12:13:47.353Z,6.73
2019-03-19T12:16:16.916Z,5.90
2019-03-19T12:18:48.318Z,6.20
2019-03-19T12:21:17.852Z,6.33
2019-03-19T12:23:47.419Z,5.30
2019-03-19T12:26:16.971Z,6.43
2019-03-19T12:28:46.564Z,5.87
2019-03-19T12:31:16.046Z,5.70
2019-03-19T12:33:45.584Z,6.03
2019-03-19T12:36:15.194Z,6.97
2019-03-19T12:38:44.726Z,6.63
2019-03-19T12:41:14.296Z,7.13
2019-03-19T12:43:43.840Z,6.50
2019-03-19T12:46:13.504Z,6.23
2019-03-19T12:48:43.024Z,7.00
2019-03-19T12:51:12.555Z,9.10
2019-03-19T12:53:42.093Z,6.93
2019-03-19T12:56:11.643Z,7.90
2019-03-19T12:58:41.228Z,6.50
2019-03-19T13:01:10.990Z,6.40
2019-03-19T13:03:40.492Z,6.73
2019-03-19T13:06:10.132Z,7.47
2019-03-19T13:08:39.636Z,7.00
2019-03-19T13:11:09.149Z,7.50
2019-03-19T13:13:40.904Z,6.87
2019-03-19T13:16:10.014Z,7.70
2019-03-19T13:18:39.567Z,7.23
2019-03-19T13:21:09.087Z,7.70
2019-03-19T13:23:38.658Z,6.47
2019-03-19T13:26:08.211Z,8.13
2019-03-19T13:28:37.756Z,6.97
2019-03-19T13:31:07.347Z,6.33
2019-03-19T13:33:36.897Z,7.60
2019-03-19T13:36:06.434Z,6.60
2019-03-19T13:38:35.972Z,17.47
2019-03-19T13:41:05.501Z,8.03
2019-03-19T13:43:35.056Z,6.57
2019-03-19T13:46:04.614Z,7.80
2019-03-19T13:48:34.138Z,6.50
2019-03-19T13:51:03.656Z,6.67
2019-03-19T13:53:33.294Z,7.43
2019-03-19T13:56:02.845Z,7.53
2019-03-19T13:58:32.396Z,7.23
2019-03-19T14:01:01.912Z,7.13
2019-03-19T14:03:42.246Z,7.63
2019-03-19T14:06:22.309Z,7.40
2019-03-19T14:08:51.840Z,7.33
2019-03-19T14:11:21.362Z,7.63
2019-03-19T14:13:51.373Z,7.40
2019-03-19T14:16:49.314Z,7.23
2019-03-19T14:20:16.944Z,7.40
2019-03-19T14:23:28.132Z,6.93
2019-03-19T14:26:36.428Z,7.60
2019-03-19T14:29:09.747Z,7.60
2019-03-19T14:32:20.621Z,7.43
2019-03-19T14:35:39.782Z,7.30
2019-03-19T14:38:17.724Z,7.20
2019-03-19T14:41:17.601Z,7.30
2019-03-19T14:43:49.461Z,7.63
2019-03-19T14:46:19.005Z,8.00
2019-03-19T14:48:48.535Z,8.20
2019-03-19T14:51:18.068Z,7.80
2019-03-19T14:53:47.611Z,7.90
2019-03-19T14:56:17.182Z,8.03
2019-03-19T14:58:46.703Z,9.13
2019-03-19T15:01:19.624Z,8.60
2019-03-19T15:03:47.520Z,7.60
2019-03-19T15:06:17.066Z,7.87
2019-03-19T15:08:46.584Z,9.00
2019-03-19T15:11:16.181Z,8.50
2019-03-19T15:13:45.728Z,7.10
2019-03-19T15:17:04.741Z,9.20
2019-03-19T15:20:07.075Z,8.70
2019-03-19T15:22:58.273Z,8.80
2019-03-19T15:25:50.242Z,8.27
2019-03-19T15:28:19.806Z,8.00
2019-03-19T15:30:49.330Z,11.90
2019-03-19T15:33:36.216Z,8.20
2019-03-19T15:36:05.781Z,9.20
2019-03-19T15:38:35.331Z,8.50
2019-03-19T15:41:04.871Z,11.00
2019-03-19T15:44:01.368Z,8.40
2019-03-19T15:46:30.928Z,18.60
2019-03-19T15:49:00.661Z,12.50
2019-03-19T15:51:30.187Z,11.70
2019-03-19T15:53:59.756Z,11.93
2019-03-19T15:56:29.354Z,12.73
2019-03-19T15:58:58.972Z,12.30
2019-03-19T16:01:28.497Z,14.13
2019-03-19T16:03:58.143Z,13.77
2019-03-19T16:06:27.736Z,14.20
2019-03-19T16:08:57.331Z,14.23
2019-03-19T16:11:26.902Z,13.00
2019-03-19T16:13:56.440Z,12.70
2019-03-19T16:16:25.998Z,13.30
2019-03-19T16:18:55.526Z,12.37
2019-03-19T16:21:25.090Z,12.53
2019-03-19T16:23:54.637Z,16.70
2019-03-19T16:26:24.171Z,25.27
2019-03-19T16:29:06.588Z,15.20
2019-03-19T16:31:37.430Z,15.43
2019-03-19T16:34:12.735Z,13.20
2019-03-19T16:37:06.216Z,14.10
2019-03-19T16:39:44.035Z,15.50
2019-03-19T16:42:17.178Z,18.03
2019-03-19T16:44:57.229Z,14.40
2019-03-19T16:47:31.370Z,15.93
2019-03-19T16:50:05.893Z,13.80
2019-03-19T16:53:20.777Z,14.60
2019-03-19T16:55:52.354Z,12.50
2019-03-19T16:58:21.886Z,15.73
2019-03-19T17:00:51.438Z,14.03
2019-03-19T17:03:21.160Z,12.77
2019-03-19T17:05:50.877Z,12.70
2019-03-19T17:08:20.458Z,14.03
2019-03-19T17:10:49.990Z,14.80
2019-03-19T17:13:19.559Z,14.07
2019-03-19T17:15:49.118Z,13.73
2019-03-19T17:18:18.750Z,12.80
2019-03-19T17:20:48.291Z,15.77
2019-03-19T17:23:17.865Z,15.73
2019-03-19T17:25:47.467Z,14.73
2019-03-19T17:28:22.436Z,15.07
2019-03-19T17:30:48.242Z,15.20
2019-03-19T17:33:17.787Z,16.30
2019-03-19T17:35:47.371Z,17.47
2019-03-19T17:38:16.944Z,17.90
2019-03-19T17:40:46.496Z,17.00
2019-03-19T17:43:16.078Z,15.97
2019-03-19T17:45:45.614Z,17.63
2019-03-19T17:48:16.351Z,16.93
2019-03-19T17:50:46.702Z,23.70
2019-03-19T17:53:16.251Z,20.00
2019-03-19T17:55:55.991Z,17.43
2019-03-19T17:58:25.553Z,16.60
2019-03-19T18:00:55.206Z,17.40
2019-03-19T18:03:24.774Z,19.23
2019-03-19T18:05:54.295Z,20.43
2019-03-19T18:08:23.856Z,23.03
2019-03-19T18:10:53.399Z,26.30
2019-03-19T18:13:22.950Z,24.57
2019-03-19T18:15:52.493Z,26.07
2019-03-19T18:18:22.405Z,23.10
2019-03-19T18:20:52.006Z,19.93
2019-03-19T18:23:21.543Z,19.37
2019-03-19T18:25:51.100Z,21.30
2019-03-19T18:28:20.722Z,21.83
2019-03-19T18:30:50.275Z,21.83
2019-03-19T18:33:19.821Z,18.87
2019-03-19T18:35:49.366Z,17.90
2019-03-19T18:38:18.919Z,22.03
2019-03-19T18:40:48.527Z,22.20
2019-03-19T18:43:18.089Z,19.43
2019-03-19T18:45:47.649Z,16.93
2019-03-19T18:48:17.227Z,16.90
2019-03-19T18:50:46.742Z,16.60
2019-03-19T18:53:16.290Z,13.80
2019-03-19T18:55:46.792Z,16.60
2019-03-19T18:58:16.447Z,15.90
2019-03-19T19:00:45.998Z,16.13
2019-03-19T19:03:15.515Z,19.20
2019-03-19T19:05:45.149Z,18.33
2019-03-19T19:08:14.728Z,20.80
2019-03-19T19:10:44.275Z,20.97
2019-03-19T19:13:13.806Z,18.73
2019-03-19T19:15:43.361Z,18.10
2019-03-19T19:18:35.569Z,16.80
2019-03-19T19:21:52.377Z,17.90
2019-03-19T19:24:57.632Z,18.87
2019-03-19T19:27:44.002Z,18.67
2019-03-19T19:30:15.864Z,19.87
2019-03-19T19:32:45.406Z,18.27
2019-03-19T19:35:15.047Z,16.23
2019-03-19T19:37:44.624Z,15.37
2019-03-19T19:40:14.913Z,16.17
2019-03-19T19:42:44.464Z,20.10
2019-03-19T19:45:16.212Z,16.87
2019-03-19T19:47:48.208Z,21.43
2019-03-19T19:50:19.930Z,17.87
2019-03-19T19:52:49.661Z,17.53
2019-03-19T19:55:20.121Z,18.97
2019-03-19T19:57:53.268Z,17.47
2019-03-19T20:00:22.806Z,15.97
2019-03-19T20:02:52.425Z,15.20
2019-03-19T20:05:21.989Z,14.27
2019-03-19T20:07:51.526Z,15.60
2019-03-19T20:10:21.110Z,16.10
2019-03-19T20:12:50.734Z,16.77
2019-03-19T20:15:20.299Z,18.30
2019-03-19T20:17:49.847Z,15.90
2019-03-19T20:20:19.526Z,15.67
2019-03-19T20:22:49.088Z,15.23
2019-03-19T20:25:19.015Z,15.63
2019-03-19T20:27:48.455Z,17.70
2019-03-19T20:30:19.048Z,16.30
2019-03-19T20:32:48.606Z,15.37
2019-03-19T20:35:18.175Z,14.50
2019-03-19T20:37:47.725Z,14.47
2019-03-19T20:40:17.265Z,12.53
2019-03-19T20:42:46.816Z,12.80
2019-03-19T20:45:16.547Z,13.93
2019-03-19T20:47:46.087Z,12.30
2019-03-19T20:50:21.016Z,12.20
2019-03-19T20:52:50.578Z,12.10
2019-03-19T20:55:20.125Z,12.53
2019-03-19T20:57:49.677Z,13.93
2019-03-19T21:00:19.257Z,17.40
2019-03-19T21:02:48.876Z,15.80
2019-03-19T21:05:18.418Z,13.10
2019-03-19T21:07:47.973Z,13.40
2019-03-19T21:12:49.857Z,13.73
2019-03-19T21:15:21.306Z,13.07
2019-03-19T21:17:50.878Z,12.07
2019-03-19T21:20:20.565Z,11.80
2019-03-19T21:22:50.149Z,11.23
2019-03-19T21:25:19.695Z,11.30
2019-03-19T21:27:49.328Z,13.40
2019-03-19T21:30:18.872Z,12.40
2019-03-19T21:32:48.412Z,11.50
2019-03-19T21:35:20.834Z,14.07
2019-03-19T21:37:50.537Z,15.13
2019-03-19T21:40:20.131Z,12.77
2019-03-19T21:42:49.663Z,12.63
2019-03-19T21:45:19.215Z,11.10
2019-03-19T21:47:48.784Z,12.87
2019-03-19T21:50:18.330Z,12.70
2019-03-19T21:52:47.926Z,11.67
2019-03-19T21:55:17.450Z,12.40
2019-03-19T21:57:47.109Z,12.30
2019-03-19T22:00:17.394Z,12.37
2019-03-19T22:02:46.967Z,12.07
2019-03-19T22:05:16.482Z,10.37
2019-03-19T22:07:46.038Z,10.90
2019-03-19T22:10:15.723Z,9.67
2019-03-19T22:12:45.288Z,10.00
2019-03-19T22:15:16.395Z,10.60
2019-03-19T22:17:45.942Z,9.67
2019-03-19T22:20:15.491Z,10.53
2019-03-19T22:22:45.030Z,8.57
2019-03-19T22:25:14.643Z,10.27
2019-03-19T22:27:44.210Z,9.93
2019-03-19T22:30:15.244Z,9.80
2019-03-19T22:32:44.911Z,10.60
2019-03-19T22:35:14.473Z,10.47
2019-03-19T22:37:44.032Z,10.83
2019-03-19T22:40:14.466Z,10.20
2019-03-19T22:42:44.024Z,9.23
2019-03-19T22:45:14.545Z,9.53
2019-03-19T22:47:44.080Z,8.63
2019-03-19T22:50:14.182Z,9.40
2019-03-19T22:52:43.749Z,10.20
2019-03-19T22:55:13.369Z,8.33
2019-03-19T22:57:42.886Z,14.20
2019-03-19T23:00:37.319Z,19.10
2019-03-19T23:03:06.846Z,20.97
2019-03-19T23:05:36.391Z,19.40
2019-03-19T23:08:05.940Z,19.87
2019-03-19T23:10:35.584Z,19.50
2019-03-19T23:13:05.161Z,18.07
2019-03-19T23:15:34.704Z,15.87
2019-03-19T23:18:04.318Z,16.03
2019-03-19T23:20:33.875Z,16.63
2019-03-19T23:23:03.428Z,17.43
2019-03-19T23:25:32.971Z,17.07
2019-03-19T23:28:02.510Z,16.33
2019-03-19T23:30:32.049Z,16.60
2019-03-19T23:33:01.615Z,16.80
2019-03-19T23:35:31.163Z,15.70
2019-03-19T23:38:00.731Z,16.70
2019-03-19T23:40:30.276Z,16.43
2019-03-19T23:42:59.806Z,15.93
2019-03-19T23:45:29.336Z,15.30
2019-03-19T23:47:58.900Z,15.57
2019-03-19T23:50:28.441Z,16.87
2019-03-19T23:52:57.988Z,16.27
2019-03-19T23:55:27.511Z,14.40
2019-03-19T23:57:57.067Z,11.60
